Time;durP1;ratioP1;P1;durP2;ratioP2;P2;SDS_P1;SDS_P2;PMS_P1;PMS_P2;Temp;Humidity;BMP_temperature;BMP_pressure;BME280_temperature;BME280_humidity;BME280_pressure;Samples;Min_cycle;Max_cycle;Signal;HPM_P1;HPM_P2
2023/09/05 00:00:17;;;;;;;1.63;0.98;;;15.30;99.90;;;;;;4991783;28;20030;-79
2023/09/05 00:02:44;;;;;;;2.70;1.33;;;15.30;99.90;;;;;;4992894;28;20035;-80
2023/09/05 00:05:12;;;;;;;1.02;0.70;;;15.20;99.90;;;;;;4991957;28;20045;-80
2023/09/05 00:07:39;;;;;;;1.92;0.90;;;15.20;99.90;;;;;;4993046;28;20033;-81
2023/09/05 00:10:08;;;;;;;2.13;1.30;;;15.20;99.90;;;;;;4992916;28;20043;-79
2023/09/05 00:12:34;;;;;;;1.65;1.08;;;15.10;99.90;;;;;;4992546;28;20045;-79
2023/09/05 00:15:04;;;;;;;2.25;1.50;;;15.10;1.00;;;;;;4992003;28;20026;-79
2023/09/05 00:17:31;;;;;;;2.25;1.60;;;15.00;1.00;;;;;;4975012;28;20047;-80
2023/09/05 00:19:57;;;;;;;1.60;1.25;;;14.90;99.90;;;;;;4993148;28;20399;-80
2023/09/05 00:22:24;;;;;;;2.95;0.82;;;14.90;99.90;;;;;;4991882;28;20054;-79
2023/09/05 00:24:50;;;;;;;1.05;0.68;;;14.80;99.90;;;;;;4988669;28;20041;-80
2023/09/05 00:27:16;;;;;;;1.13;0.77;;;14.80;99.90;;;;;;4967377;28;20046;-79
2023/09/05 00:29:42;;;;;;;0.88;0.52;;;14.80;99.90;;;;;;4989913;28;20026;-79
2023/09/05 00:32:09;;;;;;;1.00;0.73;;;14.80;99.90;;;;;;4991816;28;20049;-79
2023/09/05 00:34:37;;;;;;;1.33;1.10;;;14.80;99.90;;;;;;4972574;28;20046;-80
2023/09/05 00:37:08;;;;;;;13.32;3.58;;;14.80;99.90;;;;;;4975657;28;20034;-79
2023/09/05 00:39:40;;;;;;;8.45;2.15;;;14.80;99.90;;;;;;4969628;28;20049;-80
2023/09/05 00:42:10;;;;;;;5.88;2.30;;;14.80;99.90;;;;;;4989947;28;20042;-80
2023/09/05 00:44:37;;;;;;;4.05;1.30;;;14.70;1.00;;;;;;4990957;28;20041;-80
2023/09/05 00:47:04;;;;;;;3.30;1.90;;;14.60;1.00;;;;;;4990746;28;20456;-79
2023/09/05 00:49:38;;;;;;;3.67;2.53;;;14.50;1.00;;;;;;4986610;28;20039;-80
2023/09/05 00:52:07;;;;;;;5.38;3.15;;;14.50;1.00;;;;;;4992183;28;20037;-79
2023/09/05 00:54:35;;;;;;;3.88;2.35;;;14.50;1.00;;;;;;4990672;28;20053;-80
2023/09/05 00:57:02;;;;;;;3.55;2.38;;;14.50;1.00;;;;;;4992681;28;20031;-79
2023/09/05 00:59:28;;;;;;;5.43;3.10;;;14.50;1.00;;;;;;4991460;28;20058;-80
2023/09/05 01:01:55;;;;;;;4.10;2.67;;;14.50;1.00;;;;;;4992404;28;20376;-80
2023/09/05 01:04:22;;;;;;;13.85;3.33;;;14.50;1.00;;;;;;4986312;28;20399;-80
2023/09/05 01:07:02;;;;;;;3.90;2.00;;;14.40;1.00;;;;;;4991575;28;20360;-80
2023/09/05 01:09:59;;;;;;;5.05;2.72;;;14.50;1.00;;;;;;4991191;28;20034;-80
2023/09/05 01:12:26;;;;;;;5.70;2.42;;;14.40;1.00;;;;;;4989696;28;20034;-81
2023/09/05 01:14:52;;;;;;;3.10;1.60;;;14.40;1.00;;;;;;4972397;28;20380;-79
2023/09/05 01:17:18;;;;;;;3.20;1.67;;;14.40;1.00;;;;;;4992100;28;20049;-79
2023/09/05 01:19:48;;;;;;;2.53;1.55;;;14.40;1.00;;;;;;4991686;28;20026;-79
2023/09/05 01:22:29;;;;;;;3.53;1.40;;;14.40;1.00;;;;;;4990403;28;20388;-79
2023/09/05 01:24:55;;;;;;;4.25;1.83;;;14.40;1.00;;;;;;4966383;28;20498;-79
2023/09/05 01:27:25;;;;;;;5.45;1.98;;;14.30;1.00;;;;;;4989603;28;20038;-80
2023/09/05 01:29:51;;;;;;;4.32;1.85;;;14.40;1.00;;;;;;4987873;28;20035;-79
2023/09/05 01:32:20;;;;;;;9.25;2.55;;;14.40;1.00;;;;;;4990814;28;20049;-79
2023/09/05 01:34:47;;;;;;;2.35;1.15;;;14.40;1.00;;;;;;4987769;28;20045;-80
2023/09/05 01:37:15;;;;;;;5.07;1.73;;;14.30;1.00;;;;;;4991590;28;20046;-80
2023/09/05 01:39:42;;;;;;;6.82;2.17;;;14.30;1.00;;;;;;4994121;28;20026;-79
2023/09/05 01:42:08;;;;;;;2.97;2.00;;;14.20;1.00;;;;;;4991943;28;20030;-79
2023/09/05 01:44:36;;;;;;;6.80;2.35;;;14.30;1.00;;;;;;4990697;28;20034;-80
2023/09/05 01:47:03;;;;;;;6.22;2.45;;;14.50;1.00;;;;;;4970095;28;20050;-79
2023/09/05 01:49:30;;;;;;;5.28;2.63;;;14.50;1.00;;;;;;4991962;28;20067;-82
2023/09/05 01:51:56;;;;;;;4.22;2.25;;;14.40;1.00;;;;;;4990690;28;20034;-78
2023/09/05 01:54:24;;;;;;;7.80;2.72;;;14.20;1.00;;;;;;4989360;28;20434;-78
2023/09/05 01:56:50;;;;;;;4.88;1.90;;;14.20;1.00;;;;;;4990798;28;20229;-78
2023/09/05 01:59:19;;;;;;;4.45;1.50;;;14.10;1.00;;;;;;4971798;28;20043;-78
2023/09/05 02:01:46;;;;;;;9.70;2.00;;;14.10;1.00;;;;;;4989235;28;20468;-77
2023/09/05 02:04:12;;;;;;;6.90;1.75;;;14.00;1.00;;;;;;4990646;28;20042;-78
2023/09/05 02:06:39;;;;;;;6.68;2.15;;;13.90;1.00;;;;;;4990624;28;20034;-78
2023/09/05 02:09:06;;;;;;;2.08;1.23;;;13.90;1.00;;;;;;4967865;28;20043;-79
2023/09/05 02:11:32;;;;;;;3.92;1.60;;;13.80;1.00;;;;;;4991097;28;20035;-79
2023/09/05 02:13:58;;;;;;;4.53;1.73;;;13.80;1.00;;;;;;4991446;28;20038;-78
2023/09/05 02:16:27;;;;;;;2.17;0.98;;;13.70;1.00;;;;;;4987370;28;20059;-78
2023/09/05 02:18:54;;;;;;;1.30;0.82;;;13.70;2.60;;;;;;4959085;28;20358;-78
2023/09/05 02:21:20;;;;;;;2.05;0.93;;;13.70;3.10;;;;;;4991341;28;20037;-79
2023/09/05 02:23:46;;;;;;;3.17;1.17;;;13.60;1.00;;;;;;4990019;28;20053;-78
2023/09/05 02:26:13;;;;;;;5.82;1.20;;;13.60;5.10;;;;;;4972649;28;20034;-78
2023/09/05 02:28:40;;;;;;;6.35;1.77;;;13.60;12.90;;;;;;4989785;28;20399;-78
2023/09/05 02:31:07;;;;;;;1.35;0.75;;;13.60;15.70;;;;;;4989987;28;20037;-78
2023/09/05 02:33:36;;;;;;;2.55;1.20;;;13.60;15.70;;;;;;4966501;28;20400;-79
2023/09/05 02:36:21;;;;;;;5.35;0.73;;;13.50;20.40;;;;;;4972240;28;20047;-79
2023/09/05 02:38:47;;;;;;;4.40;1.40;;;13.50;22.20;;;;;;4990888;28;20037;-78
2023/09/05 02:41:15;;;;;;;3.60;2.17;;;13.40;28.70;;;;;;4989472;28;20376;-79
2023/09/05 02:43:41;;;;;;;3.45;2.05;;;13.40;16.80;;;;;;4990481;28;20502;-78
2023/09/05 02:46:09;;;;;;;4.07;1.63;;;13.40;17.10;;;;;;4975234;28;20030;-78
2023/09/05 02:48:40;;;;;;;1.55;0.40;;;13.40;25.60;;;;;;4994401;28;20039;-78
2023/09/05 02:51:11;;;;;;;3.53;1.20;;;13.40;20.80;;;;;;4994478;28;20376;-78
2023/09/05 02:53:38;;;;;;;1.52;0.70;;;13.40;15.30;;;;;;4991260;28;20055;-78
2023/09/05 02:56:05;;;;;;;1.95;0.80;;;13.30;12.20;;;;;;4986202;28;20039;-78
2023/09/05 02:58:32;;;;;;;2.72;0.90;;;13.30;35.80;;;;;;4995208;28;20041;-78
2023/09/05 03:01:00;;;;;;;1.05;0.47;;;13.30;56.50;;;;;;4974987;28;20041;-78
2023/09/05 03:03:26;;;;;;;0.95;0.73;;;13.20;59.60;;;;;;4994787;28;20038;-79
2023/09/05 03:05:53;;;;;;;0.40;0.40;;;13.30;75.20;;;;;;4974468;28;20044;-79
2023/09/05 03:08:20;;;;;;;2.20;0.90;;;13.10;59.20;;;;;;4974673;28;20042;-78
2023/09/05 03:10:52;;;;;;;0.82;0.60;;;13.00;55.70;;;;;;4992547;28;20042;-78
2023/09/05 03:13:20;;;;;;;1.92;0.80;;;13.00;79.20;;;;;;4960664;28;20479;-78
2023/09/05 03:15:50;;;;;;;0.68;0.40;;;13.00;91.60;;;;;;4991013;28;20035;-78
2023/09/05 03:18:17;;;;;;;2.72;1.35;;;13.00;97.00;;;;;;4971742;28;20042;-78
2023/09/05 03:20:45;;;;;;;0.38;0.32;;;13.00;99.90;;;;;;4988107;28;20042;-78
2023/09/05 03:23:13;;;;;;;1.73;0.73;;;13.00;99.90;;;;;;4994311;28;20054;-78
2023/09/05 03:25:39;;;;;;;1.13;0.95;;;13.00;99.90;;;;;;4992585;28;20438;-78
2023/09/05 03:28:05;;;;;;;2.75;0.60;;;12.90;99.90;;;;;;4970437;28;20042;-78
2023/09/05 03:30:32;;;;;;;0.52;0.40;;;12.90;99.90;;;;;;4976399;28;20053;-79
2023/09/05 03:32:58;;;;;;;2.20;0.30;;;13.00;99.90;;;;;;4993773;28;20022;-78
2023/09/05 03:35:25;;;;;;;1.25;0.50;;;13.10;99.90;;;;;;4987538;28;20054;-79
2023/09/05 03:37:51;;;;;;;0.77;0.63;;;13.00;99.90;;;;;;4989381;28;20030;-79
2023/09/05 03:40:17;;;;;;;5.40;1.85;;;13.10;96.90;;;;;;4993836;28;20038;-79
2023/09/05 03:42:43;;;;;;;0.52;0.50;;;13.10;93.40;;;;;;4966716;28;20503;-79
2023/09/05 03:45:10;;;;;;;1.00;0.57;;;13.00;91.10;;;;;;4992093;28;20038;-81
2023/09/05 03:47:36;;;;;;;1.25;0.52;;;13.00;92.60;;;;;;4992887;28;20034;-80
2023/09/05 03:50:02;;;;;;;1.20;1.00;;;13.00;97.10;;;;;;4993806;28;20042;-78
2023/09/05 03:52:28;;;;;;;0.45;0.22;;;13.00;99.20;;;;;;4994113;28;20030;-79
2023/09/05 03:54:55;;;;;;;0.57;0.47;;;13.00;99.90;;;;;;4993134;28;20030;-78
2023/09/05 03:57:21;;;;;;;2.17;1.27;;;12.90;99.90;;;;;;4992317;28;20042;-78
2023/09/05 03:59:47;;;;;;;0.68;0.68;;;12.80;99.90;;;;;;4968391;28;20042;-79
2023/09/05 04:02:13;;;;;;;0.38;0.35;;;12.80;99.90;;;;;;4993925;28;20376;-79
2023/09/05 04:04:39;;;;;;;0.55;0.35;;;12.80;99.90;;;;;;4994236;28;20058;-79
2023/09/05 04:07:06;;;;;;;0.30;0.30;;;12.70;99.90;;;;;;4992162;28;20045;-79
2023/09/05 04:09:32;;;;;;;0.30;0.30;;;12.70;99.90;;;;;;4975279;28;20046;-78
2023/09/05 04:11:59;;;;;;;1.00;0.52;;;12.60;99.90;;;;;;4975319;28;20030;-80
2023/09/05 04:14:25;;;;;;;0.22;0.22;;;12.60;99.90;;;;;;4978720;28;20460;-79
2023/09/05 04:16:51;;;;;;;1.00;0.90;;;12.60;99.90;;;;;;4990714;28;20043;-79
2023/09/05 04:19:17;;;;;;;1.00;0.63;;;12.60;99.90;;;;;;4993468;28;20034;-79
2023/09/05 04:21:45;;;;;;;0.75;0.65;;;12.60;99.90;;;;;;4979935;28;20381;-78
2023/09/05 04:24:11;;;;;;;1.38;0.68;;;12.60;99.90;;;;;;4988684;28;20074;-78
2023/09/05 04:26:38;;;;;;;0.57;0.38;;;12.70;99.90;;;;;;4991061;28;20392;-81
2023/09/05 04:29:05;;;;;;;0.47;0.45;;;12.60;99.90;;;;;;4990902;28;20042;-78
2023/09/05 04:31:31;;;;;;;1.40;0.98;;;12.70;93.30;;;;;;4992932;28;20038;-78
2023/09/05 04:33:57;;;;;;;4.32;0.70;;;12.60;73.90;;;;;;4990492;28;20057;-78
2023/09/05 04:36:24;;;;;;;0.65;0.60;;;12.50;82.20;;;;;;4993979;28;20038;-78
2023/09/05 04:38:51;;;;;;;1.77;0.80;;;12.60;92.30;;;;;;4992070;28;20046;-79
2023/09/05 04:41:18;;;;;;;1.63;0.68;;;12.60;85.60;;;;;;4992494;28;20037;-78
2023/09/05 04:43:44;;;;;;;0.30;0.30;;;12.60;90.10;;;;;;4952344;28;20046;-78
2023/09/05 04:46:10;;;;;;;1.40;1.10;;;12.70;92.20;;;;;;4988806;28;20080;-79
2023/09/05 04:48:36;;;;;;;1.80;0.80;;;12.70;83.30;;;;;;4992757;28;20483;-79
2023/09/05 04:51:03;;;;;;;0.55;0.55;;;12.70;80.10;;;;;;4992150;28;20026;-79
2023/09/05 04:53:30;;;;;;;0.70;0.68;;;12.70;92.90;;;;;;4992562;28;20042;-79
2023/09/05 04:56:00;;;;;;;0.32;0.32;;;12.80;84.20;;;;;;4990467;28;20468;-79
2023/09/05 04:58:33;;;;;;;0.85;0.60;;;12.80;73.80;;;;;;4992232;28;20038;-78
2023/09/05 05:01:03;;;;;;;0.38;0.35;;;12.90;57.80;;;;;;4990323;28;20046;-78
2023/09/05 05:03:31;;;;;;;2.20;1.02;;;12.90;39.60;;;;;;4991380;28;20035;-80
2023/09/05 05:05:57;;;;;;;1.38;1.08;;;12.80;29.80;;;;;;4990199;28;20494;-79
2023/09/05 05:08:24;;;;;;;1.50;0.82;;;12.90;34.70;;;;;;4989975;28;20042;-78
2023/09/05 05:10:50;;;;;;;0.60;0.50;;;12.90;29.70;;;;;;4991423;28;20046;-79
2023/09/05 05:13:16;;;;;;;1.05;0.98;;;12.90;37.40;;;;;;4991055;28;20049;-79
2023/09/05 05:15:46;;;;;;;1.65;0.70;;;13.00;36.50;;;;;;4989075;28;20034;-78
2023/09/05 05:18:13;;;;;;;7.70;1.80;;;13.00;26.70;;;;;;4988294;28;20034;-80
2023/09/05 05:20:40;;;;;;;0.63;0.63;;;13.00;30.10;;;;;;4991870;28;20049;-79
2023/09/05 05:23:06;;;;;;;0.50;0.50;;;13.10;32.90;;;;;;4991934;28;20074;-79
2023/09/05 05:25:33;;;;;;;0.60;0.40;;;13.10;11.30;;;;;;4989062;28;20392;-79
2023/09/05 05:27:59;;;;;;;4.10;2.40;;;13.20;6.80;;;;;;4991389;28;20050;-78
2023/09/05 05:30:25;;;;;;;0.57;0.43;;;13.40;1.90;;;;;;4991570;28;20026;-79
2023/09/05 05:32:51;;;;;;;1.45;1.13;;;14.00;1.00;;;;;;4990777;28;20038;-79
2023/09/05 05:35:17;;;;;;;0.10;0.10;;;15.50;99.90;;;;;;4989697;28;20231;-79
2023/09/05 05:37:43;;;;;;;0.60;0.50;;;16.50;99.90;;;;;;4990632;28;20490;-79
2023/09/05 05:40:11;;;;;;;0.70;0.65;;;18.10;1.00;;;;;;4991455;28;20030;-79
2023/09/05 05:42:38;;;;;;;0.50;0.50;;;19.10;99.90;;;;;;4986988;28;20050;-80
2023/09/05 05:45:04;;;;;;;4.82;0.60;;;19.50;99.90;;;;;;4969596;28;20035;-80
2023/09/05 05:47:31;;;;;;;0.73;0.73;;;20.60;99.90;;;;;;4971062;28;20042;-80
2023/09/05 05:49:57;;;;;;;1.02;0.68;;;21.30;99.90;;;;;;4989833;28;20416;-80
2023/09/05 05:52:24;;;;;;;1.73;0.55;;;21.20;99.90;;;;;;4990844;28;20049;-77
2023/09/05 05:54:50;;;;;;;1.77;1.10;;;21.10;99.90;;;;;;4972185;28;20057;-80
2023/09/05 05:57:16;;;;;;;4.80;2.13;;;20.30;99.90;;;;;;4990722;28;20042;-79
2023/09/05 05:59:42;;;;;;;0.68;0.40;;;19.50;99.90;;;;;;4987489;28;20037;-81
2023/09/05 06:02:08;;;;;;;0.63;0.52;;;18.90;99.90;;;;;;4986270;28;20049;-82
2023/09/05 06:04:35;;;;;;;0.35;0.32;;;18.90;99.90;;;;;;4973364;28;20038;-81
2023/09/05 06:07:01;;;;;;;1.60;1.33;;;19.60;99.90;;;;;;4988007;28;20026;-81
2023/09/05 06:09:28;;;;;;;0.95;0.45;;;20.60;99.90;;;;;;4990541;28;20026;-81
2023/09/05 06:11:54;;;;;;;1.75;0.77;;;21.40;99.90;;;;;;4988888;28;20035;-81
2023/09/05 06:14:20;;;;;;;0.30;0.30;;;21.70;99.90;;;;;;4985862;28;20034;-81
2023/09/05 06:16:46;;;;;;;0.65;0.65;;;22.00;99.90;;;;;;4984451;28;20034;-82
2023/09/05 06:19:14;;;;;;;0.20;0.20;;;21.30;99.90;;;;;;4988966;28;20042;-82
2023/09/05 06:21:41;;;;;;;0.35;0.35;;;22.10;99.90;;;;;;4991911;28;20042;-86
2023/09/05 06:24:07;;;;;;;0.77;0.47;;;22.80;99.90;;;;;;4992084;28;20057;-82
2023/09/05 06:26:33;;;;;;;0.47;0.40;;;22.80;93.80;;;;;;4992631;28;20042;-82
2023/09/05 06:29:00;;;;;;;0.95;0.40;;;23.60;77.60;;;;;;4994712;28;20045;-81
2023/09/05 06:31:26;;;;;;;0.22;0.22;;;23.90;49.80;;;;;;4994743;28;20030;-82
2023/09/05 06:33:52;;;;;;;0.77;0.50;;;23.60;52.30;;;;;;4994648;28;20034;-78
2023/09/05 06:36:18;;;;;;;0.85;0.47;;;23.70;62.50;;;;;;4989584;28;20042;-80
2023/09/05 06:38:45;;;;;;;1.40;0.63;;;23.30;78.00;;;;;;4993775;28;20061;-79
2023/09/05 06:41:11;;;;;;;2.38;0.93;;;23.70;67.60;;;;;;4994154;28;20086;-81
2023/09/05 06:43:37;;;;;;;0.20;0.20;;;24.10;30.40;;;;;;4993831;28;20057;-82
2023/09/05 06:46:05;;;;;;;0.68;0.55;;;24.30;17.80;;;;;;4993124;28;20039;-82
2023/09/05 06:48:33;;;;;;;0.55;0.28;;;25.00;1.00;;;;;;4994367;28;20034;-83
2023/09/05 06:50:59;;;;;;;0.30;0.22;;;25.90;1.00;;;;;;4993014;28;20038;-80
2023/09/05 06:53:29;;;;;;;0.20;0.20;;;26.20;1.00;;;;;;4992642;28;20387;-83
2023/09/05 06:55:55;;;;;;;0.10;0.10;;;26.20;1.00;;;;;;4992525;28;20065;-84
2023/09/05 06:58:23;;;;;;;0.20;0.17;;;26.00;1.00;;;;;;4994573;28;20042;-84
2023/09/05 07:00:54;;;;;;;11.25;1.17;;;25.70;1.00;;;;;;4993579;28;20049;-83
2023/09/05 07:03:27;;;;;;;0.52;0.52;;;24.90;1.00;;;;;;4994246;28;20352;-86
2023/09/05 07:05:54;;;;;;;0.63;0.20;;;24.50;1.00;;;;;;4992937;28;20037;-83
2023/09/05 07:08:20;;;;;;;0.30;0.15;;;24.30;1.00;;;;;;4993876;28;20050;-83
2023/09/05 07:10:49;;;;;;;0.28;0.25;;;24.10;1.00;;;;;;4993946;28;20340;-83
2023/09/05 07:13:16;;;;;;;0.30;0.30;;;24.30;1.00;;;;;;4994002;28;20030;-83
2023/09/05 07:15:43;;;;;;;0.30;0.20;;;24.40;1.00;;;;;;4992818;28;20492;-86
2023/09/05 07:18:10;;;;;;;0.47;0.47;;;24.50;1.00;;;;;;4989884;28;20038;-83
2023/09/05 07:20:37;;;;;;;0.30;0.30;;;24.40;1.00;;;;;;4993704;28;20387;-82
2023/09/05 07:23:03;;;;;;;1.65;0.30;;;24.30;1.00;;;;;;4993011;28;20058;-83
2023/09/05 07:25:29;;;;;;;0.45;0.40;;;24.50;1.00;;;;;;4992787;28;20038;-84
2023/09/05 07:27:56;;;;;;;0.32;0.32;;;24.90;1.00;;;;;;4993107;28;20053;-82
2023/09/05 07:30:26;;;;;;;0.50;0.45;;;24.90;1.00;;;;;;4991701;28;20051;-84
2023/09/05 07:32:52;;;;;;;0.32;0.32;;;25.00;1.00;;;;;;4989534;28;20038;-84
2023/09/05 07:35:20;;;;;;;1.08;0.40;;;25.10;1.00;;;;;;4993112;28;20054;-83
2023/09/05 07:37:46;;;;;;;0.13;0.13;;;25.40;1.00;;;;;;4976280;28;20050;-83
2023/09/05 07:40:14;;;;;;;0.20;0.20;;;25.80;1.00;;;;;;4991636;28;20464;-83
2023/09/05 07:42:42;;;;;;;0.20;0.20;;;26.00;1.00;;;;;;4992111;28;20038;-84
2023/09/05 07:45:09;;;;;;;0.50;0.35;;;26.20;1.00;;;;;;4999389;28;20098;-83
2023/09/05 07:47:36;;;;;;;0.20;0.17;;;25.80;1.00;;;;;;4993412;28;20030;-84
2023/09/05 07:50:03;;;;;;;1.95;0.85;;;25.90;1.00;;;;;;4991800;28;20045;-83
2023/09/05 07:52:29;;;;;;;0.20;0.20;;;25.80;1.00;;;;;;4972612;28;20049;-83
2023/09/05 07:54:55;;;;;;;0.55;0.20;;;25.90;1.00;;;;;;4982063;28;20034;-87
2023/09/05 07:57:21;;;;;;;0.13;0.13;;;25.80;1.00;;;;;;4991648;28;20038;-85
2023/09/05 07:59:48;;;;;;;2.10;1.20;;;25.50;1.00;;;;;;4990116;28;20031;-86
2023/09/05 08:02:14;;;;;;;0.20;0.20;;;25.40;1.00;;;;;;4993121;28;20049;-84
2023/09/05 08:04:41;;;;;;;0.40;0.28;;;25.40;1.00;;;;;;4992963;28;20034;-86
2023/09/05 08:07:07;;;;;;;0.68;0.35;;;25.50;1.00;;;;;;4988212;28;20376;-85
2023/09/05 08:09:34;;;;;;;0.30;0.30;;;25.70;1.00;;;;;;4989270;28;20045;-84
2023/09/05 08:12:01;;;;;;;0.30;0.20;;;25.70;1.00;;;;;;4994572;28;20472;-87
2023/09/05 08:14:27;;;;;;;0.10;0.10;;;25.80;1.00;;;;;;4976362;28;20049;-85
2023/09/05 08:16:53;;;;;;;0.10;0.10;;;25.70;1.00;;;;;;4992156;28;20391;-90
2023/09/05 08:19:19;;;;;;;0.20;0.20;;;25.70;1.00;;;;;;4992482;28;20035;-87
2023/09/05 08:21:46;;;;;;;0.32;0.20;;;25.50;1.00;;;;;;4981702;28;20055;-85
2023/09/05 08:24:12;;;;;;;0.65;0.40;;;25.60;1.00;;;;;;4992578;28;20038;-87
2023/09/05 08:26:39;;;;;;;0.32;0.22;;;26.10;1.00;;;;;;4973678;28;20053;-87
2023/09/05 08:29:06;;;;;;;0.20;0.20;;;26.30;1.00;;;;;;4992362;28;20034;-88
2023/09/05 08:31:32;;;;;;;0.57;0.45;;;26.30;1.00;;;;;;4991583;28;20050;-90
2023/09/05 08:33:59;;;;;;;0.28;0.20;;;26.40;1.00;;;;;;4992887;28;20038;-87
2023/09/05 08:36:25;;;;;;;0.20;0.15;;;26.40;1.00;;;;;;4993294;28;20038;-86
2023/09/05 08:38:51;;;;;;;0.30;0.30;;;26.20;1.00;;;;;;4993400;28;20046;-89
2023/09/05 08:41:17;;;;;;;0.88;0.60;;;26.40;1.00;;;;;;4993913;28;20037;-83
2023/09/05 08:43:45;;;;;;;0.20;0.20;;;26.70;1.00;;;;;;4979987;28;20049;-84
2023/09/05 08:46:13;;;;;;;0.10;0.10;;;27.00;1.00;;;;;;4988305;28;20030;-87
2023/09/05 08:48:39;;;;;;;0.20;0.15;;;27.10;1.00;;;;;;5000165;28;20038;-85
2023/09/05 08:51:09;;;;;;;0.15;0.10;;;27.00;1.00;;;;;;5004788;28;20027;-85
2023/09/05 08:53:41;;;;;;;0.30;0.30;;;26.80;1.00;;;;;;5015979;28;20481;-85
2023/09/05 08:56:08;;;;;;;0.30;0.30;;;27.00;1.00;;;;;;5007555;28;20057;-82
2023/09/05 08:58:36;;;;;;;2.08;0.73;;;26.90;1.00;;;;;;4989024;28;20045;-83
2023/09/05 09:01:02;;;;;;;0.20;0.20;;;27.10;1.00;;;;;;5003312;28;20114;-81
2023/09/05 09:03:30;;;;;;;0.52;0.40;;;27.00;1.00;;;;;;5008635;28;20041;-81
2023/09/05 09:05:57;;;;;;;0.30;0.30;;;27.10;1.00;;;;;;4993957;28;20041;-81
2023/09/05 09:08:23;;;;;;;0.20;0.20;;;27.40;1.00;;;;;;5003331;28;20053;-83
2023/09/05 09:11:07;;;;;;;0.32;0.20;;;27.80;1.00;;;;;;4994326;28;20034;-83
2023/09/05 09:13:33;;;;;;;4.47;0.35;;;28.10;1.00;;;;;;4992874;28;20088;-84
2023/09/05 09:16:00;;;;;;;0.32;0.15;;;28.00;1.00;;;;;;4989122;28;20041;-85
2023/09/05 09:18:26;;;;;;;0.43;0.43;;;28.40;1.00;;;;;;4996318;28;20456;-83
2023/09/05 09:20:53;;;;;;;0.10;0.10;;;28.20;1.00;;;;;;4998551;28;20041;-86
2023/09/05 09:23:33;;;;;;;0.10;0.10;;;28.20;1.00;;;;;;4998697;28;20472;-84
2023/09/05 09:26:00;;;;;;;0.35;0.30;;;28.40;1.00;;;;;;4981383;28;20038;-84
2023/09/05 09:28:32;;;;;;;0.10;0.10;;;28.60;1.00;;;;;;4980023;28;20038;-83
2023/09/05 09:31:01;;;;;;;0.20;0.20;;;28.90;1.00;;;;;;4991662;28;20027;-90
2023/09/05 09:33:29;;;;;;;1.17;0.32;;;29.20;1.00;;;;;;4994085;28;20033;-86
2023/09/05 09:36:01;;;;;;;0.10;0.10;;;28.70;1.00;;;;;;4986286;28;20038;-86
2023/09/05 09:38:28;;;;;;;0.30;0.30;;;28.40;1.00;;;;;;4972436;28;20046;-86
2023/09/05 09:40:55;;;;;;;0.20;0.20;;;28.20;1.00;;;;;;4994252;28;20022;-83
2023/09/05 09:43:21;;;;;;;0.38;0.38;;;28.30;1.00;;;;;;4992240;28;20050;-82
2023/09/05 09:45:47;;;;;;;0.10;0.10;;;27.90;1.00;;;;;;4998116;28;20502;-84
2023/09/05 09:48:21;;;;;;;0.25;0.25;;;28.20;1.00;;;;;;4995934;28;20106;-86
2023/09/05 09:50:48;;;;;;;0.45;0.45;;;28.20;1.00;;;;;;4972507;28;20034;-84
2023/09/05 09:53:18;;;;;;;1.27;0.75;;;28.00;1.00;;;;;;4984477;28;20178;-83
2023/09/05 09:55:45;;;;;;;0.38;0.30;;;27.90;1.00;;;;;;4988831;28;20053;-85
2023/09/05 09:58:18;;;;;;;0.75;0.38;;;27.80;1.00;;;;;;4996743;28;20098;-85
2023/09/05 10:00:45;;;;;;;0.50;0.45;;;27.90;1.00;;;;;;4964842;28;20061;-84
2023/09/05 10:03:16;;;;;;;0.20;0.20;;;27.70;1.00;;;;;;4993702;28;20031;-84
2023/09/05 10:05:43;;;;;;;0.17;0.17;;;27.70;1.00;;;;;;4965848;28;20057;-82
2023/09/05 10:08:10;;;;;;;0.70;0.30;;;27.30;1.00;;;;;;4989632;28;20030;-86
2023/09/05 10:10:39;;;;;;;0.63;0.30;;;27.20;1.00;;;;;;4991322;28;20379;-81
2023/09/05 10:13:08;;;;;;;0.50;0.50;;;27.20;1.00;;;;;;5001246;28;20053;-86
2023/09/05 10:15:39;;;;;;;0.55;0.40;;;27.10;1.00;;;;;;4994002;28;20038;-85
2023/09/05 10:18:09;;;;;;;1.33;0.28;;;26.80;1.00;;;;;;4991686;28;20045;-84
2023/09/05 10:20:38;;;;;;;0.70;0.30;;;27.00;1.00;;;;;;4993865;28;20057;-86
2023/09/05 10:23:07;;;;;;;1.45;0.77;;;26.90;1.00;;;;;;4971385;28;20055;-89
2023/09/05 10:25:37;;;;;;;0.65;0.45;;;26.80;1.00;;;;;;4971925;28;20053;-85
2023/09/05 10:28:04;;;;;;;2.83;1.10;;;26.70;1.00;;;;;;4989477;28;20038;-84
2023/09/05 10:30:42;;;;;;;0.20;0.20;;;26.70;1.00;;;;;;4988476;28;20038;-80
2023/09/05 10:33:12;;;;;;;0.20;0.20;;;26.60;1.00;;;;;;4984639;28;20038;-82
2023/09/05 10:35:44;;;;;;;0.75;0.55;;;26.50;1.00;;;;;;4971848;28;20047;-85
2023/09/05 10:38:12;;;;;;;0.38;0.20;;;26.40;1.00;;;;;;4975491;28;20038;-86
2023/09/05 10:40:41;;;;;;;0.40;0.40;;;26.40;1.00;;;;;;4970911;28;20039;-84
2023/09/05 10:43:14;;;;;;;0.10;0.10;;;26.30;1.00;;;;;;4992802;28;20037;-85
2023/09/05 10:45:40;;;;;;;0.68;0.68;;;26.50;1.00;;;;;;4989471;28;20049;-86
2023/09/05 10:48:35;;;;;;;0.20;0.20;;;26.70;1.00;;;;;;4974487;28;20035;-90
2023/09/05 10:51:06;;;;;;;0.30;0.30;;;26.80;1.00;;;;;;4991200;28;20471;-87
2023/09/05 10:53:34;;;;;;;0.13;0.13;;;26.70;1.00;;;;;;4972185;28;20043;-87
2023/09/05 10:56:00;;;;;;;0.32;0.32;;;26.80;1.00;;;;;;4988713;28;20031;-88
2023/09/05 10:58:37;;;;;;;0.45;0.45;;;26.60;1.00;;;;;;4991847;28;20035;-83
2023/09/05 11:01:29;;;;;;;0.50;0.40;;;26.60;1.00;;;;;;4990472;28;20037;-88
2023/09/05 11:03:56;;;;;;;0.20;0.20;;;26.80;1.00;;;;;;4988171;28;20031;-88
2023/09/05 11:06:24;;;;;;;0.10;0.10;;;26.70;1.00;;;;;;4979732;28;20042;-85
2023/09/05 11:09:07;;;;;;;0.10;0.10;;;26.70;1.00;;;;;;4958576;28;20046;-82
2023/09/05 11:11:37;;;;;;;0.10;0.10;;;27.10;1.00;;;;;;4993685;28;20050;-91
2023/09/05 11:14:04;;;;;;;0.13;0.13;;;27.40;1.00;;;;;;4995316;28;20348;-87
2023/09/05 11:16:49;;;;;;;0.10;0.10;;;27.40;1.00;;;;;;4984670;28;20039;-90
2023/09/05 11:19:42;;;;;;;1.55;0.73;;;27.30;1.00;;;;;;4980180;28;20360;-90
2023/09/05 11:22:21;;;;;;;0.20;0.20;;;27.40;1.00;;;;;;4994597;28;20031;-86
2023/09/05 11:25:00;;;;;;;0.10;0.10;;;27.20;1.00;;;;;;4995126;28;20030;-89
2023/09/05 11:27:29;;;;;;;0.30;0.20;;;27.20;1.00;;;;;;4994546;28;20034;-82
2023/09/05 11:29:58;;;;;;;0.40;0.40;;;27.10;1.00;;;;;;4994147;28;20030;-87
2023/09/05 11:32:33;;;;;;;1.77;0.88;;;27.50;1.00;;;;;;4995224;28;20033;-87
2023/09/05 11:35:01;;;;;;;0.35;0.35;;;27.60;1.00;;;;;;4978897;28;20042;-87
2023/09/05 11:37:28;;;;;;;0.68;0.68;;;27.80;1.00;;;;;;4993470;28;20057;-87
2023/09/05 11:39:54;;;;;;;0.20;0.20;;;27.60;1.00;;;;;;4989880;28;20403;-88
2023/09/05 11:42:23;;;;;;;0.22;0.22;;;27.40;1.00;;;;;;4976541;28;20035;-84
2023/09/05 11:44:50;;;;;;;0.25;0.25;;;27.50;1.00;;;;;;4994246;28;20480;-88
2023/09/05 11:47:18;;;;;;;0.38;0.38;;;27.50;1.00;;;;;;4997416;28;20034;-87
2023/09/05 11:49:47;;;;;;;0.28;0.28;;;27.60;1.00;;;;;;4994304;28;20042;-84
2023/09/05 11:52:15;;;;;;;0.65;0.45;;;27.80;1.00;;;;;;4979085;28;20042;-87
2023/09/05 11:54:42;;;;;;;0.30;0.30;;;28.00;1.00;;;;;;4993473;28;20049;-89
2023/09/05 11:57:09;;;;;;;0.60;0.47;;;28.10;1.00;;;;;;4994385;28;20030;-88
2023/09/05 11:59:39;;;;;;;0.25;0.20;;;28.00;1.00;;;;;;4991824;28;20046;-90
2023/09/05 12:02:08;;;;;;;0.15;0.15;;;28.00;1.00;;;;;;4974152;28;20041;-83
2023/09/05 12:04:35;;;;;;;1.10;0.75;;;28.00;1.00;;;;;;4995046;28;20030;-86
2023/09/05 12:07:04;;;;;;;0.38;0.38;;;28.10;1.00;;;;;;4994856;28;20038;-88
2023/09/05 12:09:30;;;;;;;4.00;0.38;;;28.10;1.00;;;;;;4990385;28;20034;-85
2023/09/05 12:12:10;;;;;;;3.40;0.63;;;28.00;1.00;;;;;;4966195;28;20455;-85
2023/09/05 12:14:48;;;;;;;0.20;0.20;;;28.10;1.00;;;;;;4994928;28;20050;-88
2023/09/05 12:17:19;;;;;;;0.40;0.40;;;28.20;1.00;;;;;;4990544;28;20053;-89
2023/09/05 12:19:47;;;;;;;0.28;0.28;;;28.30;1.00;;;;;;4977523;28;20038;-91
2023/09/05 12:22:24;;;;;;;0.20;0.20;;;28.30;1.00;;;;;;4975081;28;20049;-88
2023/09/05 12:25:14;;;;;;;1.17;0.77;;;28.20;1.00;;;;;;4994625;28;20038;-82
2023/09/05 12:27:42;;;;;;;;;;;28.20;1.00;;;;;;4969166;28;20468;-85
2023/09/05 12:30:30;;;;;;;0.10;0.10;;;28.20;1.00;;;;;;4967458;28;20267;-86
2023/09/05 12:33:01;;;;;;;0.25;0.20;;;28.40;1.00;;;;;;4980472;28;20041;-85
2023/09/05 12:35:29;;;;;;;0.20;0.20;;;28.50;1.00;;;;;;4994039;28;20045;-83
2023/09/05 12:37:56;;;;;;;0.70;0.30;;;28.60;1.00;;;;;;4991077;28;20055;-90
2023/09/05 12:40:24;;;;;;;0.40;0.40;;;28.60;1.00;;;;;;4993531;28;20034;-87
2023/09/05 12:42:51;;;;;;;1.38;0.28;;;28.40;1.00;;;;;;4975754;28;20027;-85
2023/09/05 12:45:18;;;;;;;0.30;0.30;;;28.40;1.00;;;;;;4994054;28;20026;-84
2023/09/05 12:47:51;;;;;;;0.13;0.13;;;28.60;1.00;;;;;;4994156;28;20026;-88
2023/09/05 12:50:22;;;;;;;0.20;0.20;;;28.80;1.00;;;;;;4992024;28;20035;-87
2023/09/05 12:52:49;;;;;;;0.20;0.20;;;28.70;1.00;;;;;;4967089;28;20042;-85
2023/09/05 12:55:15;;;;;;;0.20;0.20;;;28.70;1.00;;;;;;4966332;28;20039;-81
2023/09/05 12:57:53;;;;;;;0.10;0.10;;;28.60;1.00;;;;;;4993185;28;20057;-84